Time;durP1;ratioP1;P1;durP2;ratioP2;P2;SDS_P1;SDS_P2;PMS_P1;PMS_P2;Temp;Humidity;BMP_temperature;BMP_pressure;BME280_temperature;BME280_humidity;BME280_pressure;Samples;Min_cycle;Max_cycle;Signal;HPM_P1;HPM_P2
2022/10/15 00:01:07;;;;;;;8.75;5.28;;;;;;;;;;5073896;28;20063;-81
2022/10/15 00:03:37;;;;;;;9.23;5.78;;;;;;;;;;5074607;28;20063;-82
2022/10/15 00:06:07;;;;;;;10.98;6.05;;;;;;;;;;5055940;28;20057;-81
2022/10/15 00:08:34;;;;;;;11.95;5.45;;;;;;;;;;5074856;28;20059;-81
2022/10/15 00:11:01;;;;;;;9.13;5.78;;;;;;;;;;5068988;28;20079;-82
2022/10/15 00:13:28;;;;;;;11.63;5.68;;;;;;;;;;5079003;28;20180;-82
2022/10/15 00:15:54;;;;;;;10.60;5.70;;;;;;;;;;5093546;28;20100;-80
2022/10/15 00:18:20;;;;;;;10.45;6.25;;;;;;;;;;5076297;28;20055;-82
2022/10/15 00:20:47;;;;;;;10.98;5.47;;;;;;;;;;5077886;28;20055;-82
2022/10/15 00:23:13;;;;;;;6.93;5.20;;;;;;;;;;5075646;28;20055;-82
2022/10/15 00:25:41;;;;;;;7.45;5.32;;;;;;;;;;5075546;28;20143;-81
2022/10/15 00:28:07;;;;;;;7.82;5.07;;;;;;;;;;5074575;28;20058;-80
2022/10/15 00:30:34;;;;;;;6.70;5.13;;;;;;;;;;5076216;28;20055;-81
2022/10/15 00:33:00;;;;;;;8.23;5.07;;;;;;;;;;5075532;28;20055;-81
2022/10/15 00:35:26;;;;;;;7.30;4.55;;;;;;;;;;5072779;28;20052;-81
2022/10/15 00:37:53;;;;;;;9.52;5.53;;;;;;;;;;5075601;28;20472;-81
2022/10/15 00:40:20;;;;;;;7.70;5.38;;;;;;;;;;5057463;28;20044;-81
2022/10/15 00:42:46;;;;;;;8.70;5.90;;;;;;;;;;5075264;28;20082;-79
2022/10/15 00:45:13;;;;;;;8.63;5.70;;;;;;;;;;5079499;28;20056;-81
2022/10/15 00:47:41;;;;;;;7.50;4.75;;;;;;;;;;5079714;28;20048;-82
2022/10/15 00:50:12;;;;;;;12.80;5.82;;;;;;;;;;5079585;28;20694;-80
2022/10/15 00:52:53;;;;;;;10.45;6.10;;;;;;;;;;5063124;28;20044;-80
2022/10/15 00:55:32;;;;;;;10.70;6.32;;;;;;;;;;5088056;28;20045;-82
2022/10/15 00:58:00;;;;;;;9.50;5.93;;;;;;;;;;5081750;28;20048;-80
2022/10/15 01:00:27;;;;;;;9.52;5.75;;;;;;;;;;5088957;28;20093;-81
2022/10/15 01:02:53;;;;;;;9.20;6.20;;;;;;;;;;5085557;28;20578;-81
2022/10/15 01:05:20;;;;;;;8.80;6.07;;;;;;;;;;5082512;28;20060;-81
2022/10/15 01:07:47;;;;;;;10.07;6.18;;;;;;;;;;5064854;28;20052;-82
2022/10/15 01:10:13;;;;;;;9.43;5.95;;;;;;;;;;5075142;28;20508;-81
2022/10/15 01:12:45;;;;;;;7.40;5.60;;;;;;;;;;5057738;28;20060;-80
2022/10/15 01:15:27;;;;;;;8.40;5.85;;;;;;;;;;5073716;28;20048;-79
2022/10/15 01:18:08;;;;;;;8.27;5.57;;;;;;;;;;5054780;28;20052;-80
2022/10/15 01:20:53;;;;;;;9.98;5.47;;;;;;;;;;5072771;28;20079;-82
2022/10/15 01:23:38;;;;;;;9.27;6.15;;;;;;;;;;5072611;28;20052;-81
2022/10/15 01:26:05;;;;;;;8.83;6.13;;;;;;;;;;5073404;28;20062;-82
2022/10/15 01:28:42;;;;;;;8.43;6.07;;;;;;;;;;5072414;28;20051;-81
2022/10/15 01:31:20;;;;;;;10.00;6.28;;;;;;;;;;5072979;28;20076;-81
2022/10/15 01:34:05;;;;;;;11.05;6.05;;;;;;;;;;5073420;28;20044;-81
2022/10/15 01:36:36;;;;;;;15.00;6.00;;;;;;;;;;5072854;28;20645;-81
2022/10/15 01:39:11;;;;;;;9.55;6.22;;;;;;;;;;5071978;28;20091;-80
2022/10/15 01:41:38;;;;;;;9.43;6.35;;;;;;;;;;5072273;28;20106;-81
2022/10/15 01:44:30;;;;;;;8.27;5.70;;;;;;;;;;5071688;28;20053;-79
2022/10/15 01:47:00;;;;;;;9.98;6.20;;;;;;;;;;5066960;28;20059;-81
2022/10/15 01:49:28;;;;;;;9.27;6.13;;;;;;;;;;5071514;28;20047;-81
2022/10/15 01:51:56;;;;;;;10.35;6.25;;;;;;;;;;5079704;28;20051;-79
2022/10/15 01:54:24;;;;;;;10.98;6.45;;;;;;;;;;5076536;28;20108;-82
2022/10/15 01:56:51;;;;;;;11.93;6.30;;;;;;;;;;5054456;28;20059;-81
2022/10/15 01:59:18;;;;;;;10.98;6.07;;;;;;;;;;5061251;28;20256;-81
2022/10/15 02:01:45;;;;;;;10.52;6.18;;;;;;;;;;5073056;28;20056;-81
2022/10/15 02:04:19;;;;;;;7.97;5.65;;;;;;;;;;5074249;28;20067;-82
2022/10/15 02:06:47;;;;;;;9.82;5.57;;;;;;;;;;5074162;28;20642;-81
2022/10/15 02:09:22;;;;;;;11.13;6.05;;;;;;;;;;5083455;28;20040;-80
2022/10/15 02:11:57;;;;;;;11.32;6.55;;;;;;;;;;5075563;28;20048;-81
2022/10/15 02:14:40;;;;;;;10.65;6.22;;;;;;;;;;5077430;28;20083;-80
2022/10/15 02:17:10;;;;;;;8.02;5.63;;;;;;;;;;5068114;28;20504;-82
2022/10/15 02:19:55;;;;;;;10.23;6.53;;;;;;;;;;5078361;28;20045;-80
2022/10/15 02:22:41;;;;;;;9.07;6.35;;;;;;;;;;5078736;28;20528;-81
2022/10/15 02:25:09;;;;;;;12.35;6.57;;;;;;;;;;5060842;28;20040;-82
2022/10/15 02:27:36;;;;;;;12.43;6.57;;;;;;;;;;5074357;28;20128;-79
2022/10/15 02:30:06;;;;;;;10.48;7.00;;;;;;;;;;5072976;28;20048;-81
2022/10/15 02:32:33;;;;;;;13.13;6.90;;;;;;;;;;5055540;28;20059;-80
2022/10/15 02:35:01;;;;;;;10.82;7.20;;;;;;;;;;5073707;28;20056;-79
2022/10/15 02:37:28;;;;;;;13.07;7.60;;;;;;;;;;5074325;28;20493;-82
2022/10/15 02:39:54;;;;;;;13.15;8.05;;;;;;;;;;5074565;28;20049;-82
2022/10/15 02:42:21;;;;;;;11.90;7.90;;;;;;;;;;5056910;28;20056;-81
2022/10/15 02:44:48;;;;;;;10.65;7.15;;;;;;;;;;5074406;28;20051;-81
2022/10/15 02:47:15;;;;;;;11.30;7.68;;;;;;;;;;5073707;28;20052;-80
2022/10/15 02:49:44;;;;;;;13.35;7.28;;;;;;;;;;5073626;28;20045;-82
2022/10/15 02:52:11;;;;;;;12.20;7.97;;;;;;;;;;5074830;28;20056;-82
2022/10/15 02:54:37;;;;;;;10.95;7.38;;;;;;;;;;5075282;28;20052;-82
2022/10/15 02:57:04;;;;;;;14.73;8.32;;;;;;;;;;5081534;28;20076;-82
2022/10/15 02:59:30;;;;;;;14.20;8.02;;;;;;;;;;5073844;28;20140;-82
2022/10/15 03:01:56;;;;;;;11.07;7.75;;;;;;;;;;5073816;28;20183;-81
2022/10/15 03:04:23;;;;;;;13.20;7.78;;;;;;;;;;5073590;28;20072;-80
2022/10/15 03:06:49;;;;;;;12.38;8.40;;;;;;;;;;5055502;28;20064;-82
2022/10/15 03:09:16;;;;;;;16.10;8.10;;;;;;;;;;5056447;28;20040;-81
2022/10/15 03:11:42;;;;;;;14.70;9.45;;;;;;;;;;5074009;28;20056;-80
2022/10/15 03:14:08;;;;;;;10.85;7.78;;;;;;;;;;5074253;28;20146;-81
2022/10/15 03:16:35;;;;;;;13.20;8.20;;;;;;;;;;5072980;28;20055;-82
2022/10/15 03:19:01;;;;;;;14.38;8.75;;;;;;;;;;5074491;28;20048;-80
2022/10/15 03:21:29;;;;;;;13.35;9.25;;;;;;;;;;5074669;28;20049;-81
2022/10/15 03:23:56;;;;;;;17.85;9.98;;;;;;;;;;5075438;28;20634;-81
2022/10/15 03:26:23;;;;;;;12.38;8.30;;;;;;;;;;5076441;28;20052;-81
2022/10/15 03:28:49;;;;;;;18.20;9.43;;;;;;;;;;5076447;28;20049;-81
2022/10/15 03:31:16;;;;;;;14.02;8.88;;;;;;;;;;5079134;28;20090;-81
2022/10/15 03:33:42;;;;;;;12.50;7.90;;;;;;;;;;5076820;28;20050;-81
2022/10/15 03:36:09;;;;;;;17.40;8.23;;;;;;;;;;5077346;28;20079;-81
2022/10/15 03:38:35;;;;;;;13.32;8.70;;;;;;;;;;5085404;28;20036;-81
2022/10/15 03:41:01;;;;;;;12.18;8.68;;;;;;;;;;5096703;28;20059;-81
2022/10/15 03:43:28;;;;;;;13.98;8.88;;;;;;;;;;5094259;28;20044;-80
2022/10/15 03:45:54;;;;;;;12.88;8.63;;;;;;;;;;5075351;28;20045;-81
2022/10/15 03:48:21;;;;;;;15.00;8.50;;;;;;;;;;5073154;28;20048;-81
2022/10/15 03:50:47;;;;;;;13.95;9.10;;;;;;;;;;5055870;28;20501;-81
2022/10/15 03:53:13;;;;;;;11.43;8.05;;;;;;;;;;5074019;28;20413;-81
2022/10/15 03:55:40;;;;;;;13.23;8.63;;;;;;;;;;5074197;28;20041;-81
2022/10/15 03:58:06;;;;;;;13.98;8.63;;;;;;;;;;5073087;28;20049;-79
2022/10/15 04:00:32;;;;;;;13.88;7.93;;;;;;;;;;5073503;28;20051;-82
2022/10/15 04:02:59;;;;;;;12.57;8.48;;;;;;;;;;5073393;28;20045;-81
2022/10/15 04:05:25;;;;;;;13.85;8.57;;;;;;;;;;5075286;28;20543;-80
2022/10/15 04:07:51;;;;;;;18.77;9.75;;;;;;;;;;5077979;28;20637;-81
2022/10/15 04:10:18;;;;;;;13.85;9.00;;;;;;;;;;5076684;28;20048;-82
2022/10/15 04:12:44;;;;;;;14.75;8.98;;;;;;;;;;5078597;28;20501;-80
2022/10/15 04:15:10;;;;;;;17.33;8.48;;;;;;;;;;5082666;28;20117;-81
2022/10/15 04:17:37;;;;;;;13.57;8.18;;;;;;;;;;5078153;28;20050;-79
2022/10/15 04:20:03;;;;;;;11.48;8.48;;;;;;;;;;5081827;28;20045;-82
2022/10/15 04:22:30;;;;;;;14.45;7.95;;;;;;;;;;5077177;28;20113;-81
2022/10/15 04:24:56;;;;;;;12.48;8.85;;;;;;;;;;5075688;28;20044;-83
2022/10/15 04:27:22;;;;;;;13.73;9.20;;;;;;;;;;5076706;28;20055;-82
2022/10/15 04:29:49;;;;;;;13.60;8.82;;;;;;;;;;5078074;28;20068;-82
2022/10/15 04:32:15;;;;;;;14.93;9.65;;;;;;;;;;5078401;28;20049;-82
2022/10/15 04:34:42;;;;;;;13.30;8.35;;;;;;;;;;5078038;28;20048;-82
2022/10/15 04:37:08;;;;;;;12.75;8.50;;;;;;;;;;5077415;28;20044;-83
2022/10/15 04:39:34;;;;;;;11.63;8.07;;;;;;;;;;5059496;28;20049;-81
2022/10/15 04:42:01;;;;;;;13.27;8.60;;;;;;;;;;5072131;28;20687;-81
2022/10/15 04:44:27;;;;;;;14.05;8.32;;;;;;;;;;5071509;28;20048;-81
2022/10/15 04:46:53;;;;;;;12.30;7.43;;;;;;;;;;5071730;28;20057;-80
2022/10/15 04:49:20;;;;;;;14.00;8.32;;;;;;;;;;5074419;28;20065;-81
2022/10/15 04:51:46;;;;;;;12.75;7.35;;;;;;;;;;5071750;28;20048;-82
2022/10/15 04:54:12;;;;;;;12.27;8.20;;;;;;;;;;5072065;28;20063;-80
2022/10/15 04:56:39;;;;;;;11.10;6.97;;;;;;;;;;5072375;28;20512;-82
2022/10/15 04:59:06;;;;;;;8.60;6.57;;;;;;;;;;5070503;28;20056;-82
2022/10/15 05:01:33;;;;;;;9.23;6.15;;;;;;;;;;5071602;28;20052;-81
2022/10/15 05:03:59;;;;;;;10.70;6.38;;;;;;;;;;5070288;28;20055;-82
2022/10/15 05:06:25;;;;;;;11.15;6.65;;;;;;;;;;5071167;28;20052;-80
2022/10/15 05:08:52;;;;;;;9.60;6.57;;;;;;;;;;5070630;28;20044;-81
2022/10/15 05:11:19;;;;;;;8.13;5.65;;;;;;;;;;5071455;28;20045;-83
2022/10/15 05:13:46;;;;;;;11.25;6.10;;;;;;;;;;5071230;28;20067;-82
2022/10/15 05:16:12;;;;;;;9.02;5.57;;;;;;;;;;5071362;28;20044;-82
2022/10/15 05:18:40;;;;;;;7.55;5.57;;;;;;;;;;5071104;28;20052;-80
2022/10/15 05:21:06;;;;;;;7.57;5.10;;;;;;;;;;5071438;28;20052;-81
2022/10/15 05:23:33;;;;;;;8.68;5.47;;;;;;;;;;5070516;28;20546;-82
2022/10/15 05:26:00;;;;;;;8.45;4.85;;;;;;;;;;5071920;28;20132;-79
2022/10/15 05:28:26;;;;;;;7.93;5.15;;;;;;;;;;5071423;28;20044;-82
2022/10/15 05:30:53;;;;;;;8.13;4.82;;;;;;;;;;5072710;28;20501;-80
2022/10/15 05:33:19;;;;;;;12.15;5.30;;;;;;;;;;5073040;28;20060;-83
2022/10/15 05:35:46;;;;;;;8.20;4.95;;;;;;;;;;5071987;28;20659;-82
2022/10/15 05:38:12;;;;;;;10.25;4.38;;;;;;;;;;5070821;28;20048;-80
2022/10/15 05:40:38;;;;;;;7.85;4.38;;;;;;;;;;5052618;28;20055;-81
2022/10/15 05:43:05;;;;;;;6.90;4.80;;;;;;;;;;5070577;28;20084;-80
2022/10/15 05:45:31;;;;;;;8.90;4.68;;;;;;;;;;5070430;28;20677;-81
2022/10/15 05:47:58;;;;;;;7.10;4.43;;;;;;;;;;5069481;28;20052;-81
2022/10/15 05:50:24;;;;;;;5.22;4.00;;;;;;;;;;5069977;28;20071;-82
2022/10/15 05:52:53;;;;;;;6.82;4.13;;;;;;;;;;5071160;28;20055;-81
2022/10/15 05:55:19;;;;;;;5.30;3.80;;;;;;;;;;5053359;28;20112;-81
2022/10/15 05:57:45;;;;;;;5.78;3.85;;;;;;;;;;5071460;28;20127;-81
2022/10/15 06:00:12;;;;;;;5.60;3.92;;;;;;;;;;5063140;28;20504;-80
2022/10/15 06:02:38;;;;;;;6.78;3.67;;;;;;;;;;5076418;28;20094;-79
2022/10/15 06:05:05;;;;;;;6.10;3.88;;;;;;;;;;5076747;28;20071;-82
2022/10/15 06:07:32;;;;;;;4.03;3.38;;;;;;;;;;5074989;28;20116;-82
2022/10/15 06:09:58;;;;;;;5.65;3.30;;;;;;;;;;5061062;28;20048;-79
2022/10/15 06:12:24;;;;;;;8.20;3.47;;;;;;;;;;5072718;28;20477;-82
2022/10/15 06:14:51;;;;;;;3.63;2.90;;;;;;;;;;5074527;28;20052;-84
2022/10/15 06:17:17;;;;;;;4.35;3.20;;;;;;;;;;5074492;28;20063;-83
2022/10/15 06:19:44;;;;;;;7.13;3.00;;;;;;;;;;5059510;28;20062;-82
2022/10/15 06:22:10;;;;;;;6.78;3.20;;;;;;;;;;5054774;28;20060;-83
2022/10/15 06:24:36;;;;;;;3.83;2.80;;;;;;;;;;5071768;28;20136;-82
2022/10/15 06:27:03;;;;;;;4.35;3.10;;;;;;;;;;5067746;28;20053;-78
2022/10/15 06:29:29;;;;;;;5.25;2.60;;;;;;;;;;5070437;28;20053;-79
2022/10/15 06:31:55;;;;;;;5.60;2.90;;;;;;;;;;5071735;28;20158;-81
2022/10/15 06:34:22;;;;;;;4.90;3.42;;;;;;;;;;5071489;28;20057;-80
2022/10/15 06:36:48;;;;;;;6.90;3.13;;;;;;;;;;5051990;28;20048;-80
2022/10/15 06:39:15;;;;;;;6.93;3.70;;;;;;;;;;5069767;28;20052;-81
2022/10/15 06:41:41;;;;;;;4.93;3.60;;;;;;;;;;5068404;28;20067;-81
2022/10/15 06:44:07;;;;;;;5.07;3.72;;;;;;;;;;5071943;28;20058;-80
2022/10/15 06:46:35;;;;;;;7.93;4.60;;;;;;;;;;5069035;28;20848;-80
2022/10/15 06:49:01;;;;;;;5.38;3.85;;;;;;;;;;5050891;28;20041;-81
2022/10/15 06:51:28;;;;;;;7.00;4.15;;;;;;;;;;5070549;28;20051;-82
2022/10/15 06:53:54;;;;;;;8.98;4.47;;;;;;;;;;5074493;28;20063;-84
2022/10/15 06:56:20;;;;;;;5.63;4.28;;;;;;;;;;5074906;28;20588;-84
2022/10/15 06:58:47;;;;;;;6.88;4.32;;;;;;;;;;5073365;28;20056;-82
2022/10/15 07:01:13;;;;;;;5.43;4.18;;;;;;;;;;5071362;28;20055;-81
2022/10/15 07:03:40;;;;;;;5.75;3.80;;;;;;;;;;5074792;28;20048;-83
2022/10/15 07:06:07;;;;;;;7.40;4.68;;;;;;;;;;5087245;28;20092;-83
2022/10/15 07:08:34;;;;;;;5.65;4.05;;;;;;;;;;5077361;28;20044;-82
2022/10/15 07:11:01;;;;;;;5.53;4.47;;;;;;;;;;5089822;28;20059;-82
2022/10/15 07:13:28;;;;;;;6.25;4.25;;;;;;;;;;5054979;28;20052;-81
2022/10/15 07:15:54;;;;;;;5.78;3.67;;;;;;;;;;5070583;28;20058;-82
2022/10/15 07:18:21;;;;;;;4.25;3.22;;;;;;;;;;5072459;28;20120;-81
2022/10/15 07:20:48;;;;;;;3.10;2.58;;;;;;;;;;5075228;28;20067;-82
2022/10/15 07:23:14;;;;;;;2.63;2.00;;;;;;;;;;5080005;28;20161;-81
2022/10/15 07:25:41;;;;;;;3.65;1.92;;;;;;;;;;5074218;28;20048;-81
2022/10/15 07:28:07;;;;;;;3.97;2.05;;;;;;;;;;5059791;28;20052;-81
2022/10/15 07:30:33;;;;;;;3.00;1.80;;;;;;;;;;5076646;28;20087;-82
2022/10/15 07:33:00;;;;;;;2.65;1.70;;;;;;;;;;5078311;28;20135;-82
2022/10/15 07:35:26;;;;;;;3.20;1.20;;;;;;;;;;5076202;28;20060;-81
2022/10/15 07:37:53;;;;;;;2.40;0.80;;;;;;;;;;5080264;28;20186;-81
2022/10/15 07:40:20;;;;;;;1.13;0.63;;;;;;;;;;5072136;28;20055;-80
2022/10/15 07:42:53;;;;;;;0.93;0.60;;;;;;;;;;5075426;28;20056;-81
2022/10/15 07:45:19;;;;;;;3.15;0.63;;;;;;;;;;5066318;28;20143;-80
2022/10/15 07:47:46;;;;;;;1.27;0.60;;;;;;;;;;5075332;28;20165;-82
2022/10/15 07:50:12;;;;;;;1.25;0.40;;;;;;;;;;5073854;28;20389;-81
2022/10/15 07:52:39;;;;;;;1.15;0.30;;;;;;;;;;5076299;28;20056;-81
2022/10/15 07:55:05;;;;;;;1.73;0.43;;;;;;;;;;5070505;28;20056;-81
2022/10/15 07:57:31;;;;;;;2.28;0.50;;;;;;;;;;5072193;28;20066;-80
2022/10/15 07:59:58;;;;;;;2.30;0.43;;;;;;;;;;5058909;28;20049;-79
2022/10/15 08:02:28;;;;;;;0.60;0.30;;;;;;;;;;5073303;28;20630;-82
2022/10/15 08:04:55;;;;;;;0.60;0.50;;;;;;;;;;5071655;28;20114;-81
2022/10/15 08:07:21;;;;;;;3.58;0.55;;;;;;;;;;5072171;28;20055;-82
2022/10/15 08:09:48;;;;;;;1.08;0.40;;;;;;;;;;5075033;28;20080;-81
2022/10/15 08:12:14;;;;;;;0.60;0.40;;;;;;;;;;5070089;28;20048;-81
2022/10/15 08:14:40;;;;;;;1.13;0.50;;;;;;;;;;5070022;28;20548;-81
2022/10/15 08:17:07;;;;;;;1.13;0.50;;;;;;;;;;5069832;28;20059;-82
2022/10/15 08:19:33;;;;;;;1.00;0.50;;;;;;;;;;5058664;28;20060;-83
2022/10/15 08:22:00;;;;;;;0.45;0.40;;;;;;;;;;5071387;28;20052;-82
2022/10/15 08:24:26;;;;;;;4.30;0.60;;;;;;;;;;5068730;28;20520;-82
2022/10/15 08:26:52;;;;;;;0.40;0.40;;;;;;;;;;5069442;28;20052;-82
2022/10/15 08:29:19;;;;;;;1.73;0.57;;;;;;;;;;5071585;28;20767;-81
2022/10/15 08:31:45;;;;;;;0.60;0.50;;;;;;;;;;5068019;28;20074;-80
2022/10/15 08:34:12;;;;;;;1.77;0.40;;;;;;;;;;5069477;28;20496;-83
2022/10/15 08:36:38;;;;;;;1.50;0.43;;;;;;;;;;5066209;28;20090;-82
2022/10/15 08:39:06;;;;;;;1.65;0.40;;;;;;;;;;5068159;28;20057;-83
2022/10/15 08:41:44;;;;;;;3.97;0.57;;;;;;;;;;5066814;28;20056;-82
2022/10/15 08:44:49;;;;;;;1.02;0.38;;;;;;;;;;5070339;28;20428;-82
2022/10/15 08:47:25;;;;;;;0.80;0.40;;;;;;;;;;4986086;28;20058;-80
2022/10/15 08:50:12;;;;;;;2.63;0.50;;;;;;;;;;4984908;28;20085;-81
2022/10/15 08:52:43;;;;;;;1.63;0.50;;;;;;;;;;5031780;28;20040;-81
2022/10/15 08:55:14;;;;;;;3.30;0.32;;;;;;;;;;5061039;28;20063;-82
2022/10/15 08:57:40;;;;;;;0.85;0.50;;;;;;;;;;5067574;28;20041;-81
2022/10/15 09:00:12;;;;;;;3.13;0.50;;;;;;;;;;5066540;28;20049;-82
2022/10/15 09:02:58;;;;;;;1.10;0.50;;;;;;;;;;5071166;28;20051;-81
2022/10/15 09:05:30;;;;;;;2.33;0.73;;;;;;;;;;5065915;28;20052;-81
2022/10/15 09:08:16;;;;;;;2.63;0.52;;;;;;;;;;5053618;28;20598;-81
2022/10/15 09:10:45;;;;;;;2.13;0.70;;;;;;;;;;5062544;28;20055;-80
2022/10/15 09:13:41;;;;;;;1.98;0.32;;;;;;;;;;5067963;28;20052;-81
2022/10/15 09:16:16;;;;;;;0.90;0.40;;;;;;;;;;5058072;28;20148;-82
2022/10/15 09:18:47;;;;;;;2.28;0.32;;;;;;;;;;5087684;28;20297;-81
2022/10/15 09:21:14;;;;;;;1.50;0.38;;;;;;;;;;5070142;28;20063;-83
2022/10/15 09:23:42;;;;;;;1.13;0.40;;;;;;;;;;5071959;28;20062;-82
2022/10/15 09:26:12;;;;;;;0.82;0.50;;;;;;;;;;5065099;28;20066;-80
2022/10/15 09:28:43;;;;;;;0.85;0.40;;;;;;;;;;5066646;28;20060;-80
2022/10/15 09:31:12;;;;;;;0.40;0.30;;;;;;;;;;5065995;28;20045;-81
2022/10/15 09:33:47;;;;;;;2.22;0.43;;;;;;;;;;5062773;28;20048;-82
2022/10/15 09:36:14;;;;;;;;;;;;;;;;;;5067358;28;20071;-85
2022/10/15 09:38:40;;;;;;;;;;;;;;;;;;5066780;28;19931;-81
2022/10/15 09:41:06;;;;;;;;;;;;;;;;;;5048606;28;20621;-82
2022/10/15 09:43:39;;;;;;;0.25;0.25;;;;;;;;;;5069528;28;19928;-81
2022/10/15 09:46:07;;;;;;;0.40;0.32;;;;;;;;;;5049419;28;20132;-81
2022/10/15 09:48:38;;;;;;;0.77;0.40;;;;;;;;;;5067998;28;20048;-81
2022/10/15 09:51:11;;;;;;;1.02;0.32;;;;;;;;;;5069348;28;20690;-81
2022/10/15 09:53:48;;;;;;;1.17;0.35;;;;;;;;;;5070634;28;20052;-81
2022/10/15 09:56:17;;;;;;;0.98;0.50;;;;;;;;;;5064491;28;20045;-80
2022/10/15 09:58:52;;;;;;;2.42;0.50;;;;;;;;;;5063105;28;20053;-83
2022/10/15 10:01:23;;;;;;;0.40;0.30;;;;;;;;;;5068040;28;20049;-80
2022/10/15 10:03:51;;;;;;;2.00;0.40;;;;;;;;;;5075015;28;20052;-80
2022/10/15 10:06:17;;;;;;;1.90;0.50;;;;;;;;;;5068590;28;20773;-82
2022/10/15 10:08:57;;;;;;;0.68;0.52;;;;;;;;;;5067339;28;20578;-83
2022/10/15 10:11:24;;;;;;;1.08;0.32;;;;;;;;;;5063678;28;20040;-81
2022/10/15 10:13:52;;;;;;;2.17;0.40;;;;;;;;;;5067045;28;20044;-80
2022/10/15 10:16:20;;;;;;;1.45;0.60;;;;;;;;;;5065597;28;20646;-82
2022/10/15 10:19:05;;;;;;;0.82;0.50;;;;;;;;;;5067682;28;20046;-84
2022/10/15 10:21:38;;;;;;;1.20;0.40;;;;;;;;;;5070238;28;20055;-82
2022/10/15 10:24:16;;;;;;;0.73;0.40;;;;;;;;;;5075211;28;20091;-79
2022/10/15 10:26:43;;;;;;;0.50;0.40;;;;;;;;;;5069420;28;20068;-81
2022/10/15 10:29:15;;;;;;;0.43;0.30;;;;;;;;;;5087539;28;20043;-81
2022/10/15 10:31:59;;;;;;;0.90;0.40;;;;;;;;;;5080444;28;20048;-81
2022/10/15 10:34:28;;;;;;;0.52;0.35;;;;;;;;;;5079024;28;20048;-81
2022/10/15 10:36:54;;;;;;;2.08;0.50;;;;;;;;;;5066974;28;20114;-82
2022/10/15 10:39:25;;;;;;;0.45;0.40;;;;;;;;;;5070533;28;20048;-82
2022/10/15 10:41:54;;;;;;;0.63;0.40;;;;;;;;;;5070243;28;20055;-81
2022/10/15 10:44:21;;;;;;;1.38;0.70;;;;;;;;;;5069868;28;20397;-82
2022/10/15 10:47:06;;;;;;;1.33;0.63;;;;;;;;;;5068623;28;20476;-78
2022/10/15 10:49:43;;;;;;;1.47;0.80;;;;;;;;;;5067587;28;20089;-82
2022/10/15 10:52:28;;;;;;;1.38;0.90;;;;;;;;;;5069321;28;20052;-79
2022/10/15 10:54:58;;;;;;;3.03;1.52;;;;;;;;;;5070729;28;20048;-81
2022/10/15 10:57:46;;;;;;;2.05;1.40;;;;;;;;;;5068742;28;20052;-82
2022/10/15 11:00:33;;;;;;;1.48;1.10;;;;;;;;;;5070621;28;20053;-81
2022/10/15 11:02:59;;;;;;;2.00;1.00;;;;;;;;;;5056927;28;20079;-82
2022/10/15 11:05:28;;;;;;;1.50;1.10;;;;;;;;;;5071127;28;20605;-83
2022/10/15 11:07:54;;;;;;;1.50;1.00;;;;;;;;;;5071591;28;20052;-81
2022/10/15 11:10:27;;;;;;;2.10;1.50;;;;;;;;;;5071015;28;20049;-79
2022/10/15 11:13:12;;;;;;;3.80;1.52;;;;;;;;;;5050742;28;20049;-80
2022/10/15 11:15:41;;;;;;;1.97;1.40;;;;;;;;;;5069501;28;20388;-81
2022/10/15 11:18:28;;;;;;;2.25;1.33;;;;;;;;;;5069167;28;20065;-80
2022/10/15 11:21:07;;;;;;;2.28;1.05;;;;;;;;;;5065378;28;20056;-81
2022/10/15 11:23:36;;;;;;;2.72;0.88;;;;;;;;;;5068807;28;20469;-81
2022/10/15 11:26:03;;;;;;;2.50;0.70;;;;;;;;;;5045017;28;20052;-80
2022/10/15 11:28:41;;;;;;;2.05;0.80;;;;;;;;;;5063907;28;20060;-79
2022/10/15 11:31:28;;;;;;;1.13;0.80;;;;;;;;;;5066793;28;20448;-82
2022/10/15 11:34:17;;;;;;;1.10;0.98;;;;;;;;;;5069121;28;20054;-80
2022/10/15 11:37:02;;;;;;;2.55;1.02;;;;;;;;;;5068523;28;20055;-82
2022/10/15 11:39:32;;;;;;;1.20;0.70;;;;;;;;;;5073200;28;20560;-81
2022/10/15 11:42:04;;;;;;;1.00;0.68;;;;;;;;;;5072569;28;20040;-81
2022/10/15 11:44:31;;;;;;;2.42;1.05;;;;;;;;;;5054591;28;20074;-81
2022/10/15 11:47:00;;;;;;;1.05;0.60;;;;;;;;;;5054307;28;20680;-80
2022/10/15 11:49:36;;;;;;;1.77;0.70;;;;;;;;;;5072272;28;20479;-81
2022/10/15 11:52:17;;;;;;;0.93;0.55;;;;;;;;;;5074272;28;20051;-78
2022/10/15 11:54:46;;;;;;;0.80;0.50;;;;;;;;;;5074408;28;20131;-79
2022/10/15 11:57:15;;;;;;;0.63;0.55;;;;;;;;;;5079426;28;20051;-80
2022/10/15 11:59:54;;;;;;;0.82;0.52;;;;;;;;;;5069203;28;20048;-80
2022/10/15 12:02:23;;;;;;;1.38;0.50;;;;;;;;;;5081371;28;20045;-80
2022/10/15 12:05:03;;;;;;;1.15;0.50;;;;;;;;;;5076488;28;20071;-80
2022/10/15 12:07:38;;;;;;;0.85;0.50;;;;;;;;;;5076775;28;20056;-79
2022/10/15 12:10:11;;;;;;;0.70;0.52;;;;;;;;;;5077225;28;20059;-80
2022/10/15 12:12:49;;;;;;;1.25;0.60;;;;;;;;;;5078364;28;20120;-80
2022/10/15 12:15:22;;;;;;;1.08;0.57;;;;;;;;;;5080012;28;20055;-80
2022/10/15 12:17:54;;;;;;;1.48;0.50;;;;;;;;;;5080079;28;20087;-80
2022/10/15 12:20:21;;;;;;;0.80;0.50;;;;;;;;;;5074899;28;20056;-80
2022/10/15 12:22:55;;;;;;;1.65;0.60;;;;;;;;;;5074119;28;20056;-80
2022/10/15 12:25:33;;;;;;;0.73;0.50;;;;;;;;;;5054781;28;20056;-80
2022/10/15 12:28:03;;;;;;;2.28;0.77;;;;;;;;;;5052953;28;20519;-79
2022/10/15 12:30:36;;;;;;;1.70;0.52;;;;;;;;;;5071884;28;20044;-80
2022/10/15 12:33:21;;;;;;;1.02;0.60;;;;;;;;;;5053760;28;20110;-77
2022/10/15 12:35:56;;;;;;;0.73;0.55;;;;;;;;;;5070931;28;20041;-79
2022/10/15 12:38:22;;;;;;;1.70;0.65;;;;;;;;;;5069558;28;20040;-78
2022/10/15 12:40:55;;;;;;;1.10;0.60;;;;;;;;;;5068644;28;20408;-77
2022/10/15 12:43:21;;;;;;;1.17;0.63;;;;;;;;;;5069362;28;20484;-78
2022/10/15 12:45:52;;;;;;;1.85;0.70;;;;;;;;;;5069928;28;20046;-78
2022/10/15 12:48:36;;;;;;;1.15;0.70;;;;;;;;;;5071733;28;20131;-78
2022/10/15 12:51:33;;;;;;;1.08;0.60;;;;;;;;;;5051048;28;20115;-80
2022/10/15 12:54:01;;;;;;;1.38;0.88;;;;;;;;;;5047016;28;20048;-81
2022/10/15 12:56:38;;;;;;;2.15;1.10;;;;;;;;;;5073525;28;20075;-78
2022/10/15 12:59:25;;;;;;;1.70;0.80;;;;;;;;;;5078208;28;20499;-79
2022/10/15 13:01:51;;;;;;;1.13;0.80;;;;;;;;;;5060679;28;20164;-80
2022/10/15 13:04:18;;;;;;;0.77;0.50;;;;;;;;;;5061125;28;20049;-80
2022/10/15 13:06:45;;;;;;;1.00;0.70;;;;;;;;;;5051777;28;20537;-80
2022/10/15 13:09:12;;;;;;;0.68;0.40;;;;;;;;;;5053280;28;20052;-80
2022/10/15 13:11:49;;;;;;;0.50;0.40;;;;;;;;;;5070628;28;20048;-81
2022/10/15 13:14:23;;;;;;;0.75;0.50;;;;;;;;;;5070510;28;20455;-80
2022/10/15 13:16:50;;;;;;;0.90;0.55;;;;;;;;;;5071490;28;20847;-79
2022/10/15 13:19:36;;;;;;;0.70;0.40;;;;;;;;;;5071666;28;20048;-80
2022/10/15 13:22:04;;;;;;;0.93;0.63;;;;;;;;;;5053818;28;20519;-81
2022/10/15 13:24:42;;;;;;;0.52;0.50;;;;;;;;;;5071735;28;20048;-80
2022/10/15 13:27:23;;;;;;;1.25;0.60;;;;;;;;;;5072029;28;20048;-80
2022/10/15 13:30:00;;;;;;;2.08;0.50;;;;;;;;;;5071149;28;20402;-79
2022/10/15 13:32:29;;;;;;;0.98;0.60;;;;;;;;;;5072082;28;20056;-79
2022/10/15 13:34:56;;;;;;;1.50;0.50;;;;;;;;;;5072338;28;20044;-79
2022/10/15 13:37:28;;;;;;;1.10;0.50;;;;;;;;;;5070440;28;20080;-79
2022/10/15 13:39:55;;;;;;;2.90;0.40;;;;;;;;;;5052675;28;20467;-80
2022/10/15 13:42:23;;;;;;;0.40;0.40;;;;;;;;;;5053712;28;20064;-80
2022/10/15 13:44:58;;;;;;;1.77;0.40;;;;;;;;;;5053779;28;20068;-79
2022/10/15 13:47:26;;;;;;;0.60;0.40;;;;;;;;;;5070717;28;20052;-79
2022/10/15 13:50:11;;;;;;;3.83;0.43;;;;;;;;;;5070021;28;20048;-80
2022/10/15 13:52:41;;;;;;;2.08;0.50;;;;;;;;;;5071357;28;20048;-79
2022/10/15 13:55:18;;;;;;;0.50;0.40;;;;;;;;;;5077263;28;20056;-77
2022/10/15 13:57:45;;;;;;;0.75;0.45;;;;;;;;;;5080425;28;20135;-79
2022/10/15 14:00:19;;;;;;;0.60;0.40;;;;;;;;;;5073716;28;20068;-78
2022/10/15 14:03:04;;;;;;;0.57;0.40;;;;;;;;;;5070438;28;20048;-80
2022/10/15 14:05:31;;;;;;;1.38;0.65;;;;;;;;;;5070047;28;20508;-79
2022/10/15 14:07:57;;;;;;;2.20;0.40;;;;;;;;;;5070559;28;20419;-80
2022/10/15 14:10:24;;;;;;;0.63;0.40;;;;;;;;;;5069517;28;20044;-80
2022/10/15 14:12:51;;;;;;;1.48;0.60;;;;;;;;;;5070554;28;20049;-80
2022/10/15 14:15:36;;;;;;;1.33;0.43;;;;;;;;;;5070945;28;20044;-80
2022/10/15 14:18:02;;;;;;;1.05;0.60;;;;;;;;;;5069753;28;20476;-81
2022/10/15 14:20:28;;;;;;;1.45;0.70;;;;;;;;;;5069413;28;20052;-78
2022/10/15 14:22:55;;;;;;;2.08;0.47;;;;;;;;;;5070504;28;20060;-80
2022/10/15 14:25:23;;;;;;;0.55;0.50;;;;;;;;;;5070466;28;20048;-80
2022/10/15 14:27:50;;;;;;;0.93;0.60;;;;;;;;;;5069991;28;20471;-80
2022/10/15 14:30:25;;;;;;;0.50;0.40;;;;;;;;;;5070498;28;20416;-80
2022/10/15 14:32:51;;;;;;;1.07;0.67;;;;;;;;;;5076405;28;20059;-79
2022/10/15 14:35:30;;;;;;;1.00;0.52;;;;;;;;;;5074004;28;20283;-79
2022/10/15 14:38:01;;;;;;;0.95;0.60;;;;;;;;;;5055016;28;20048;-78
2022/10/15 14:40:27;;;;;;;1.95;0.68;;;;;;;;;;5074792;28;20543;-79
2022/10/15 14:42:54;;;;;;;1.45;0.55;;;;;;;;;;5071342;28;20134;-80
2022/10/15 14:45:24;;;;;;;3.53;0.57;;;;;;;;;;5071218;28;20045;-79
2022/10/15 14:47:58;;;;;;;1.15;0.73;;;;;;;;;;5071014;28;20045;-78
2022/10/15 14:50:26;;;;;;;1.58;0.57;;;;;;;;;;5072430;28;20657;-79
2022/10/15 14:52:53;;;;;;;1.30;0.68;;;;;;;;;;5071573;28;20357;-80
2022/10/15 14:55:23;;;;;;;2.58;0.45;;;;;;;;;;5070578;28;20307;-79
2022/10/15 14:57:50;;;;;;;3.22;0.52;;;;;;;;;;5070655;28;20587;-79